Time;durP1;ratioP1;P1;durP2;ratioP2;P2;SDS_P1;SDS_P2;PMS_P1;PMS_P2;Temp;Humidity;BMP_temperature;BMP_pressure;BME280_temperature;BME280_humidity;BME280_pressure;Samples;Min_cycle;Max_cycle;Signal;HPM_P1;HPM_P2
2022/05/24 00:00:26;;;;;;;;;;;;;;;;;;5097221;28;19911;-73
2022/05/24 00:02:51;;;;;;;;;;;;;;;;;;5096954;28;20378;-73
2022/05/24 00:05:16;;;;;;;;;;;;;;;;;;5097473;28;20334;-74
2022/05/24 00:07:41;;;;;;;;;;;;;;;;;;5097158;28;19908;-74
2022/05/24 00:10:07;;;;;;;;;;;;;;;;;;5096763;28;20262;-73
2022/05/24 00:12:32;;;;;;;;;;;;;;;;;;5096800;28;19915;-73
2022/05/24 00:15:43;;;;;;;;;;;;;;;;;;5096441;28;19911;-73
2022/05/24 00:17:43;;;;;;;;;;;;;;;;;;5085685;28;19922;-73
2022/05/24 00:20:08;;;;;;;;;;;;;;;;;;5097059;28;19939;-74
2022/05/24 00:22:33;;;;;;;;;;;;;;;;;;5096599;28;19912;-74
2022/05/24 00:25:01;;;;;;;;;;;;;;;;;;5096799;28;19911;-74
2022/05/24 00:27:26;;;;;;;;;;;;;;;;;;5096512;28;20346;-74
2022/05/24 00:29:51;;;;;;;;;;;;;;;;;;5078445;28;19950;-74
2022/05/24 00:32:16;;;;;;;;;;;;;;;;;;5096926;28;19908;-74
2022/05/24 00:34:41;;;;;;;;;;;;;;;;;;5096719;28;19908;-74
2022/05/24 00:37:08;;;;;;;;;;;;;;;;;;5096532;28;20334;-73
2022/05/24 00:39:35;;;;;;;;;;;;;;;;;;5096677;28;20314;-73
2022/05/24 00:42:00;;;;;;;;;;;;;;;;;;5096320;28;20061;-73
2022/05/24 00:44:25;;;;;;;;;;;;;;;;;;5096400;28;19969;-73
2022/05/24 00:46:50;;;;;;;;;;;;;;;;;;5096265;28;19915;-73
2022/05/24 00:49:16;;;;;;;;;;;;;;;;;;5095794;28;19904;-73
2022/05/24 00:51:41;;;;;;;;;;;;;;;;;;5096417;28;19907;-72
2022/05/24 00:54:07;;;;;;;;;;;;;;;;;;5096112;28;20350;-73
2022/05/24 00:56:32;;;;;;;;;;;;;;;;;;5096006;28;19930;-72
2022/05/24 00:58:58;;;;;;;;;;;;;;;;;;5095848;28;20308;-71
2022/05/24 01:01:24;;;;;;;;;;;;;;;;;;5096227;28;19931;-72
2022/05/24 01:03:49;;;;;;;;;;;;;;;;;;5095757;28;19914;-72
2022/05/24 01:06:14;;;;;;;;;;;;;;;;;;5095918;28;19948;-72
2022/05/24 01:08:39;;;;;;;;;;;;;;;;;;5094900;28;19927;-72
2022/05/24 01:11:06;;;;;;;;;;;;;;;;;;5095846;28;19907;-72
2022/05/24 01:13:31;;;;;;;;;;;;;;;;;;5095512;28;19915;-72
2022/05/24 01:15:56;;;;;;;;;;;;;;;;;;5095760;28;19923;-74
2022/05/24 01:18:21;;;;;;;;;;;;;;;;;;5095592;28;19904;-73
2022/05/24 01:20:47;;;;;;;;;;;;;;;;;;5095871;28;20033;-72
2022/05/24 01:23:12;;;;;;;;;;;;;;;;;;5095650;28;19908;-72
2022/05/24 01:25:38;;;;;;;;;;;;;;;;;;5095508;28;19916;-72
2022/05/24 01:28:03;;;;;;;;;;;;;;;;;;5095411;28;19908;-72
2022/05/24 01:30:28;;;;;;;;;;;;;;;;;;5095418;28;19915;-73
2022/05/24 01:38:21;;;;;;;;;;;;;;;;;;5095329;28;19908;-74
2022/05/24 01:40:47;;;;;;;;;;;;;;;;;;5095256;28;19954;-74
2022/05/24 01:43:13;;;;;;;;;;;;;;;;;;5095047;28;19919;-73
2022/05/24 01:45:38;;;;;;;;;;;;;;;;;;5095205;28;19908;-72
2022/05/24 01:48:03;;;;;;;;;;;;;;;;;;5095316;28;19908;-72
2022/05/24 01:50:29;;;;;;;;;;;;;;;;;;5095431;28;20006;-72
2022/05/24 01:52:55;;;;;;;;;;;;;;;;;;5094885;28;19912;-72
2022/05/24 01:55:20;;;;;;;;;;;;;;;;;;5095027;28;19957;-72
2022/05/24 01:57:45;;;;;;;;;;;;;;;;;;5095028;28;19907;-72
2022/05/24 02:00:11;;;;;;;;;;;;;;;;;;5094792;28;19904;-72
2022/05/24 02:02:43;;;;;;;;;;;;;;;;;;5076246;28;19912;-73
2022/05/24 02:05:08;;;;;;;;;;;;;;;;;;5094969;28;19908;-73
2022/05/24 02:07:34;;;;;;;;;;;;;;;;;;5094660;28;19908;-72
2022/05/24 02:09:59;;;;;;;;;;;;;;;;;;5094879;28;19908;-73
2022/05/24 02:12:24;;;;;;;;;;;;;;;;;;5076874;28;19998;-73
2022/05/24 02:14:49;;;;;;;;;;;;;;;;;;5076816;28;19908;-74
2022/05/24 02:17:14;;;;;;;;;;;;;;;;;;5094350;28;20341;-73
2022/05/24 02:19:40;;;;;;;;;;;;;;;;;;5094275;28;19912;-73
2022/05/24 02:22:05;;;;;;;;;;;;;;;;;;5094201;28;20271;-74
2022/05/24 02:24:30;;;;;;;;;;;;;;;;;;5094435;28;19912;-74
2022/05/24 02:26:58;;;;;;;;;;;;;;;;;;5094820;28;19904;-74
2022/05/24 02:29:23;;;;;;;;;;;;;;;;;;5094755;28;20308;-74
2022/05/24 02:31:48;;;;;;;;;;;;;;;;;;5094133;28;19908;-74
2022/05/24 02:34:13;;;;;;;;;;;;;;;;;;5094746;28;19908;-73
2022/05/24 02:36:39;;;;;;;;;;;;;;;;;;5094640;28;20360;-73
2022/05/24 02:39:04;;;;;;;;;;;;;;;;;;5094494;28;19908;-73
2022/05/24 02:41:32;;;;;;;;;;;;;;;;;;5094365;28;19904;-73
2022/05/24 02:43:58;;;;;;;;;;;;;;;;;;5094635;28;19919;-74
2022/05/24 02:46:23;;;;;;;;;;;;;;;;;;5094629;28;19940;-73
2022/05/24 02:48:48;;;;;;;;;;;;;;;;;;5094611;28;19915;-73
2022/05/24 02:51:13;;;;;;;;;;;;;;;;;;5093973;28;19904;-73
2022/05/24 02:53:38;;;;;;;;;;;;;;;;;;5094726;28;20262;-74
2022/05/24 02:56:05;;;;;;;;;;;;;;;;;;5094378;28;19911;-73
2022/05/24 02:58:30;;;;;;;;;;;;;;;;;;5094293;28;19960;-73
2022/05/24 03:00:57;;;;;;;;;;;;;;;;;;5094176;28;19982;-74
2022/05/24 03:03:22;;;;;;;;;;;;;;;;;;5094206;28;20448;-74
2022/05/24 03:05:49;;;;;;;;;;;;;;;;;;5094161;28;20354;-73
2022/05/24 03:11:00;;;;;;;;;;;;;;;;;;5094535;28;20346;-75
2022/05/24 03:16:09;;;;;;;;;;;;;;;;;;5093617;28;19959;-74
2022/05/24 03:18:35;;;;;;;;;;;;;;;;;;5094172;28;20313;-73
2022/05/24 03:21:00;;;;;;;;;;;;;;;;;;5094055;28;19915;-74
2022/05/24 03:23:26;;;;;;;;;;;;;;;;;;5093884;28;19908;-74
2022/05/24 03:25:51;;;;;;;;;;;;;;;;;;5094177;28;20270;-74
2022/05/24 03:28:16;;;;;;;;;;;;;;;;;;5094284;28;20284;-74
2022/05/24 03:30:42;;;;;;;;;;;;;;;;;;5093903;28;20278;-73
2022/05/24 03:33:07;;;;;;;;;;;;;;;;;;5096635;28;20317;-73
2022/05/24 03:35:32;;;;;;;;;;;;;;;;;;5097514;28;19908;-73
2022/05/24 03:37:57;;;;;;;;;;;;;;;;;;5079450;28;20374;-74
2022/05/24 03:40:23;;;;;;;;;;;;;;;;;;5097606;28;19915;-73
2022/05/24 03:42:51;;;;;;;;;;;;;;;;;;5097830;28;20388;-74
2022/05/24 03:45:18;;;;;;;;;;;;;;;;;;5097761;28;19908;-74
2022/05/24 03:47:43;;;;;;;;;;;;;;;;;;5097356;28;19939;-73
2022/05/24 03:50:09;;;;;;;;;;;;;;;;;;5097736;28;19908;-73
2022/05/24 03:52:34;;;;;;;;;;;;;;;;;;5097235;28;19908;-73
2022/05/24 03:54:59;;;;;;;;;;;;;;;;;;5097166;28;19915;-73
2022/05/24 04:00:08;;;;;;;;;;;;;;;;;;5097330;28;20003;-72
2022/05/24 04:02:37;;;;;;;;;;;;;;;;;;5096028;28;19912;-72
2022/05/24 04:05:03;;;;;;;;;;;;;;;;;;5070854;28;19911;-72
2022/05/24 04:07:28;;;;;;;;;;;;;;;;;;5096315;28;19911;-72
2022/05/24 04:09:53;;;;;;;;;;;;;;;;;;5096598;28;19908;-72
2022/05/24 04:15:35;;;;;;;;;;;;;;;;;;5094702;28;19959;-73
2022/05/24 04:18:00;;;;;;;;;;;;;;;;;;5094125;28;19955;-72
2022/05/24 04:20:26;;;;;;;;;;;;;;;;;;5093191;28;19908;-72
2022/05/24 04:22:52;;;;;;;;;;;;;;;;;;5074690;28;20013;-72
2022/05/24 04:25:17;;;;;;;;;;;;;;;;;;5093637;28;19908;-72
2022/05/24 04:27:42;;;;;;;;;;;;;;;;;;5094801;28;19915;-73
2022/05/24 04:33:23;;;;;;;;;;;;;;;;;;5096164;28;19950;-72
2022/05/24 04:39:04;;;;;;;;;;;;;;;;;;5096081;28;20278;-72
2022/05/24 04:44:45;;;;;;;;;;;;;;;;;;5095705;28;19934;-72
2022/05/24 04:47:11;;;;;;;;;;;;;;;;;;5095527;28;20366;-68
2022/05/24 04:49:36;;;;;;;;;;;;;;;;;;5093903;28;20380;-72
2022/05/24 04:52:03;;;;;;;;;;;;;;;;;;5093877;28;19908;-72
2022/05/24 04:54:29;;;;;;;;;;;;;;;;;;5092935;28;19907;-72
2022/05/24 04:56:54;;;;;;;;;;;;;;;;;;5093208;28;19951;-72
2022/05/24 04:59:22;;;;;;;;;;;;;;;;;;5093105;28;20370;-72
2022/05/24 05:01:51;;;;;;;;;;;;;;;;;;5093069;28;20011;-72
2022/05/24 05:04:16;;;;;;;;;;;;;;;;;;5092874;28;19922;-72
2022/05/24 05:06:42;;;;;;;;;;;;;;;;;;5093051;28;19908;-72
2022/05/24 05:09:07;;;;;;;;;;;;;;;;;;5092918;28;19977;-73
2022/05/24 05:11:32;;;;;;;;;;;;;;;;;;5092599;28;20308;-73
2022/05/24 05:13:58;;;;;;;;;;;;;;;;;;5092105;28;19908;-72
2022/05/24 05:16:23;;;;;;;;;;;;;;;;;;5092750;28;19955;-72
2022/05/24 05:18:48;;;;;;;;;;;;;;;;;;5093013;28;19915;-72
2022/05/24 05:21:13;;;;;;;;;;;;;;;;;;5093863;28;19934;-73
2022/05/24 05:23:39;;;;;;;;;;;;;;;;;;5093618;28;20617;-72
2022/05/24 05:26:04;;;;;;;;;;;;;;;;;;5092580;28;20275;-73
2022/05/24 05:28:29;;;;;;;;;;;;;;;;;;5092633;28;19908;-72
2022/05/24 05:33:39;;;;;;;;;;;;;;;;;;5092852;28;19950;-72
2022/05/24 05:36:04;;;;;;;;;;;;;;;;;;5095068;28;19939;-73
2022/05/24 05:38:31;;;;;;;;;;;;;;;;;;5095178;28;19950;-73
2022/05/24 05:40:57;;;;;;;;;;;;;;;;;;5092841;28;19904;-72
2022/05/24 05:43:22;;;;;;;;;;;;;;;;;;5094252;28;19912;-72
2022/05/24 05:45:47;;;;;;;;;;;;;;;;;;5094499;28;19952;-73
2022/05/24 05:48:13;;;;;;;;;;;;;;;;;;5094710;28;19908;-72
2022/05/24 05:50:38;;;;;;;;;;;;;;;;;;5095261;28;19904;-73
2022/05/24 05:53:04;;;;;;;;;;;;;;;;;;5094828;28;19908;-72
2022/05/24 05:55:29;;;;;;;;;;;;;;;;;;5094012;28;20397;-73
2022/05/24 05:57:54;;;;;;;;;;;;;;;;;;5076149;28;19919;-72
2022/05/24 06:00:19;;;;;;;;;;;;;;;;;;5093850;28;19951;-72
2022/05/24 06:02:46;;;;;;;;;;;;;;;;;;5094949;28;20003;-72
2022/05/24 06:11:19;;;;;;;;;;;;;;;;;;5094744;28;19957;-73
2022/05/24 13:19:03;;;;;;;;;;;;;;;;;;5064705;28;20246;-71
2022/05/24 13:21:31;;;;;;;;;;;;;;;;;;5074837;28;19912;-71
2022/05/24 13:23:56;;;;;;;;;;;;;;;;;;5074858;28;19913;-71
2022/05/24 13:26:21;;;;;;;;;;;;;;;;;;5074970;28;19931;-73
2022/05/24 13:28:48;;;;;;;;;;;;;;;;;;5074521;28;19947;-72
2022/05/24 13:33:57;;;;;;;;;;;;;;;;;;5074719;28;19916;-71
2022/05/24 13:39:39;;;;;;;;;;;;;;;;;;5075010;28;19916;-71
2022/05/24 13:45:21;;;;;;;;;;;;;;;;;;5074631;28;19966;-71
2022/05/24 13:51:03;;;;;;;;;;;;;;;;;;5074835;28;20352;-71
2022/05/24 13:56:44;;;;;;;;;;;;;;;;;;5074443;28;20007;-70
2022/05/24 14:02:25;;;;;;;;;;;;;;;;;;5074279;28;20514;-70
2022/05/24 14:08:07;;;;;;;;;;;;;;;;;;5074312;28;19978;-71
2022/05/24 14:13:49;;;;;;;;;;;;;;;;;;5074223;28;20377;-69
2022/05/24 14:22:53;;;;;;;;;;;;;;;;;;5074039;28;19919;-69
2022/05/24 14:28:34;;;;;;;;;;;;;;;;;;5074359;28;19923;-69
2022/05/24 14:34:15;;;;;;;;;;;;;;;;;;5074302;28;20404;-69
2022/05/24 14:39:56;;;;;;;;;;;;;;;;;;5074261;28;20400;-70
2022/05/24 14:45:37;;;;;;;;;;;;;;;;;;5073938;28;19934;-70
2022/05/24 14:51:18;;;;;;;;;;;;;;;;;;5074160;28;19915;-70
2022/05/24 14:56:59;;;;;;;;;;;;;;;;;;5074070;28;20430;-70
2022/05/24 15:02:43;;;;;;;;;;;;;;;;;;5074021;28;20274;-72
2022/05/24 15:05:08;;;;;;;;;;;;;;;;;;5073632;28;20300;-70
2022/05/24 15:15:45;;;;;;;;;;;;;;;;;;5073939;28;19908;-71
2022/05/24 15:18:11;;;;;;;;;;;;;;;;;;5073979;28;19916;-70
2022/05/24 15:20:36;;;;;;;;;;;;;;;;;;5074049;28;19924;-71
2022/05/24 15:23:01;;;;;;;;;;;;;;;;;;5073723;28;19908;-71
2022/05/24 15:25:27;;;;;;;;;;;;;;;;;;5074039;28;19951;-72
2022/05/24 15:27:53;;;;;;;;;;;;;;;;;;5074617;28;19909;-72
2022/05/24 15:30:18;;;;;;;;;;;;;;;;;;5076990;28;19908;-72
2022/05/24 15:32:44;;;;;;;;;;;;;;;;;;5076742;28;19904;-72
2022/05/24 15:35:09;;;;;;;;;;;;;;;;;;5076972;28;20342;-72
2022/05/24 15:37:35;;;;;;;;;;;;;;;;;;5076885;28;19927;-72
2022/05/24 15:40:00;;;;;;;;;;;;;;;;;;5077696;28;19950;-72
2022/05/24 15:42:25;;;;;;;;;;;;;;;;;;5076524;28;19904;-72
2022/05/24 15:44:51;;;;;;;;;;;;;;;;;;5076779;28;19916;-72
2022/05/24 15:47:17;;;;;;;;;;;;;;;;;;5077266;28;19904;-72
2022/05/24 15:49:43;;;;;;;;;;;;;;;;;;5077024;28;19913;-72
2022/05/24 15:52:08;;;;;;;;;;;;;;;;;;5076999;28;19905;-72
2022/05/24 15:54:34;;;;;;;;;;;;;;;;;;5076670;28;19909;-72
2022/05/24 15:56:59;;;;;;;;;;;;;;;;;;5076652;28;19912;-72
2022/05/24 15:59:24;;;;;;;;;;;;;;;;;;5077036;28;19909;-72
2022/05/24 16:01:50;;;;;;;;;;;;;;;;;;5076608;28;20338;-72
2022/05/24 16:04:15;;;;;;;;;;;;;;;;;;5076626;28;19999;-72
2022/05/24 16:10:07;;;;;;;;;;;;;;;;;;5076004;28;19916;-73
2022/05/24 16:12:32;;;;;;;;;;;;;;;;;;5076246;28;19913;-73
2022/05/24 16:14:57;;;;;;;;;;;;;;;;;;5076387;28;19992;-72
2022/05/24 16:17:22;;;;;;;;;;;;;;;;;;5055525;28;19909;-73
2022/05/24 16:19:48;;;;;;;;;;;;;;;;;;5074572;28;19994;-72
2022/05/24 16:22:13;;;;;;;;;;;;;;;;;;5076125;28;20377;-71
2022/05/24 16:24:38;;;;;;;;;;;;;;;;;;5075995;28;19908;-71
2022/05/24 16:33:14;;;;;;;;;;;;;;;;;;5076047;28;19958;-72
2022/05/24 16:38:55;;;;;;;;;;;;;;;;;;5075783;28;19919;-72
2022/05/24 16:44:37;;;;;;;;;;;;;;;;;;5075759;28;19920;-72
2022/05/24 16:50:18;;;;;;;;;;;;;;;;;;5075990;28;20378;-72
2022/05/24 17:02:00;;;;;;;;;;;;;;;;;;5075458;28;19937;-72
2022/05/24 17:07:41;;;;;;;;;;;;;;;;;;5075360;28;19926;-72
2022/05/24 17:13:23;;;;;;;;;;;;;;;;;;5075217;28;19916;-72
2022/05/24 17:28:32;;;;;;;;;;;;;;;;;;5075246;28;20304;-71
2022/05/24 17:34:13;;;;;;;;;;;;;;;;;;5074835;28;19954;-72
2022/05/24 17:39:54;;;;;;;;;;;;;;;;;;5074713;28;19915;-72
2022/05/24 17:45:36;;;;;;;;;;;;;;;;;;5074623;28;19935;-72
2022/05/24 17:51:17;;;;;;;;;;;;;;;;;;5073826;28;19915;-72
2022/05/24 17:56:59;;;;;;;;;;;;;;;;;;5076282;28;19915;-72
2022/05/24 17:59:25;;;;;;;;;;;;;;;;;;5093253;28;19908;-72
2022/05/24 18:01:50;;;;;;;;;;;;;;;;;;5093499;28;19904;-72
2022/05/24 18:04:15;;;;;;;;;;;;;;;;;;5093420;28;20022;-72
2022/05/24 18:06:41;;;;;;;;;;;;;;;;;;5093515;28;19904;-72
2022/05/24 18:09:07;;;;;;;;;;;;;;;;;;5093246;28;20629;-72
2022/05/24 18:11:33;;;;;;;;;;;;;;;;;;5092943;28;20342;-72
2022/05/24 18:13:58;;;;;;;;;;;;;;;;;;5093208;28;19908;-72
2022/05/24 18:16:23;;;;;;;;;;;;;;;;;;5071786;28;19927;-72
2022/05/24 18:18:49;;;;;;;;;;;;;;;;;;5091525;28;19912;-72
2022/05/24 18:21:14;;;;;;;;;;;;;;;;;;5093138;28;19904;-71
2022/05/24 18:23:40;;;;;;;;;;;;;;;;;;5071978;28;19912;-72
2022/05/24 18:34:16;;;;;;;;;;;;;;;;;;5093050;28;19908;-72
2022/05/24 18:36:41;;;;;;;;;;;;;;;;;;5072248;28;19915;-71
2022/05/24 18:39:07;;;;;;;;;;;;;;;;;;5093074;28;19908;-71
2022/05/24 18:41:34;;;;;;;;;;;;;;;;;;5093069;28;20144;-72
2022/05/24 18:43:59;;;;;;;;;;;;;;;;;;5092933;28;20341;-72
2022/05/24 18:46:25;;;;;;;;;;;;;;;;;;5092935;28;19999;-72
2022/05/24 18:48:50;;;;;;;;;;;;;;;;;;5092509;28;19998;-72
2022/05/24 18:51:16;;;;;;;;;;;;;;;;;;5092793;28;20398;-72
2022/05/24 18:53:41;;;;;;;;;;;;;;;;;;5072436;28;19912;-72
2022/05/24 18:56:07;;;;;;;;;;;;;;;;;;5092626;28;20274;-72
2022/05/24 18:58:34;;;;;;;;;;;;;;;;;;5093017;28;19908;-72
2022/05/24 19:04:15;;;;;;;;;;;;;;;;;;5098223;28;20388;-72
2022/05/24 19:09:58;;;;;;;;;;;;;;;;;;5097415;28;19915;-71
2022/05/24 19:12:24;;;;;;;;;;;;;;;;;;5097479;28;19908;-71
2022/05/24 19:14:49;;;;;;;;;;;;;;;;;;5097463;28;20346;-70
2022/05/24 19:17:14;;;;;;;;;;;;;;;;;;5097360;28;19908;-70
2022/05/24 19:19:40;;;;;;;;;;;;;;;;;;5097509;28;19916;-70
2022/05/24 19:22:05;;;;;;;;;;;;;;;;;;5097926;28;19915;-71
2022/05/24 19:24:32;;;;;;;;;;;;;;;;;;5097819;28;19912;-70
2022/05/24 19:30:13;;;;;;;;;;;;;;;;;;5097521;28;20404;-71
2022/05/24 19:35:54;;;;;;;;;;;;;;;;;;5097423;28;19918;-70
2022/05/24 19:41:44;;;;;;;;;;;;;;;;;;5097312;28;19966;-71
2022/05/24 19:47:25;;;;;;;;;;;;;;;;;;5097177;28;20017;-71
2022/05/24 19:53:08;;;;;;;;;;;;;;;;;;5097100;28;20419;-71
2022/05/24 19:58:49;;;;;;;;;;;;;;;;;;5096981;28;19915;-71
2022/05/24 20:04:31;;;;;;;;;;;;;;;;;;5096789;28;20045;-71
2022/05/24 20:10:12;;;;;;;;;;;;;;;;;;5096785;28;19919;-71
2022/05/24 20:15:54;;;;;;;;;;;;;;;;;;5096528;28;20483;-71
2022/05/24 20:25:05;;;;;;;;;;;;;;;;;;5096512;28;20404;-72
2022/05/24 20:30:46;;;;;;;;;;;;;;;;;;5096357;28;20353;-72
2022/05/24 20:36:28;;;;;;;;;;;;;;;;;;5096269;28;19982;-71
2022/05/24 20:42:10;;;;;;;;;;;;;;;;;;5096132;28;19915;-71
2022/05/24 20:47:51;;;;;;;;;;;;;;;;;;5096044;28;19915;-72
2022/05/24 20:53:34;;;;;;;;;;;;;;;;;;5096209;28;20373;-71
2022/05/24 20:59:22;;;;;;;;;;;;;;;;;;5095806;28;19940;-71
2022/05/24 21:05:03;;;;;;;;;;;;;;;;;;5095619;28;20273;-71
2022/05/24 21:10:44;;;;;;;;;;;;;;;;;;5095592;28;19930;-71
2022/05/24 21:16:26;;;;;;;;;;;;;;;;;;5095490;28;19915;-71
2022/05/24 21:31:23;;;;;;;;;;;;;;;;;;5095197;28;19915;-71
2022/05/24 21:37:05;;;;;;;;;;;;;;;;;;5095108;28;19947;-70
2022/05/24 21:42:46;;;;;;;;;;;;;;;;;;5094874;28;19933;-70
2022/05/24 21:48:27;;;;;;;;;;;;;;;;;;5094905;28;19914;-71
2022/05/24 21:54:08;;;;;;;;;;;;;;;;;;5094780;28;19915;-71
2022/05/24 21:59:49;;;;;;;;;;;;;;;;;;5094703;28;20006;-70
2022/05/24 22:02:15;;;;;;;;;;;;;;;;;;5094561;28;19920;-69
2022/05/24 22:04:40;;;;;;;;;;;;;;;;;;5094888;28;19931;-69
2022/05/24 22:07:09;;;;;;;;;;;;;;;;;;5094488;28;19908;-69
2022/05/24 22:09:34;;;;;;;;;;;;;;;;;;5094357;28;19951;-69
2022/05/24 22:12:00;;;;;;;;;;;;;;;;;;5094735;28;19934;-69
2022/05/24 22:14:26;;;;;;;;;;;;;;;;;;5095151;28;19957;-69
2022/05/24 22:16:52;;;;;;;;;;;;;;;;;;5094686;28;19912;-69
2022/05/24 22:19:17;;;;;;;;;;;;;;;;;;5094689;28;19904;-69
2022/05/24 22:21:42;;;;;;;;;;;;;;;;;;5094790;28;19916;-69
2022/05/24 22:24:07;;;;;;;;;;;;;;;;;;5094214;28;20358;-69
2022/05/24 22:26:33;;;;;;;;;;;;;;;;;;5094822;28;20247;-69
2022/05/24 22:28:58;;;;;;;;;;;;;;;;;;5094223;28;19904;-69
2022/05/24 22:31:23;;;;;;;;;;;;;;;;;;5094832;28;19943;-69
2022/05/24 22:33:49;;;;;;;;;;;;;;;;;;5094197;28;20239;-69
2022/05/24 22:36:14;;;;;;;;;;;;;;;;;;5094653;28;20049;-69
2022/05/24 22:38:39;;;;;;;;;;;;;;;;;;5093999;28;20033;-69
2022/05/24 22:41:05;;;;;;;;;;;;;;;;;;5094668;28;19908;-69
2022/05/24 22:43:30;;;;;;;;;;;;;;;;;;5094331;28;19998;-69
2022/05/24 22:45:55;;;;;;;;;;;;;;;;;;5094888;28;19931;-69
2022/05/24 22:48:20;;;;;;;;;;;;;;;;;;5094313;28;19911;-69
2022/05/24 22:50:46;;;;;;;;;;;;;;;;;;5094038;28;19908;-70
2022/05/24 22:53:11;;;;;;;;;;;;;;;;;;5094543;28;20006;-70
2022/05/24 22:55:36;;;;;;;;;;;;;;;;;;5094047;28;19908;-70
2022/05/24 22:58:01;;;;;;;;;;;;;;;;;;5094558;28;20242;-70
2022/05/24 23:00:27;;;;;;;;;;;;;;;;;;5093984;28;20388;-70
2022/05/24 23:02:52;;;;;;;;;;;;;;;;;;5093862;28;19955;-69
2022/05/24 23:05:17;;;;;;;;;;;;;;;;;;5093924;28;19908;-70
2022/05/24 23:07:42;;;;;;;;;;;;;;;;;;5093905;28;19926;-69
2022/05/24 23:10:08;;;;;;;;;;;;;;;;;;5093881;28;19908;-69
2022/05/24 23:12:33;;;;;;;;;;;;;;;;;;5094376;28;19904;-69
2022/05/24 23:14:59;;;;;;;;;;;;;;;;;;5094036;28;19914;-69
2022/05/24 23:17:24;;;;;;;;;;;;;;;;;;5094234;28;20254;-69
2022/05/24 23:19:49;;;;;;;;;;;;;;;;;;5093788;28;20003;-69
2022/05/24 23:22:15;;;;;;;;;;;;;;;;;;5093977;28;20261;-69
2022/05/24 23:24:40;;;;;;;;;;;;;;;;;;5093973;28;19912;-69
2022/05/24 23:27:05;;;;;;;;;;;;;;;;;;5094310;28;19954;-69
2022/05/24 23:29:34;;;;;;;;;;;;;;;;;;5093644;28;19912;-69
2022/05/24 23:32:02;;;;;;;;;;;;;;;;;;5094283;28;19927;-69
2022/05/24 23:34:28;;;;;;;;;;;;;;;;;;5093976;28;19908;-69
2022/05/24 23:36:54;;;;;;;;;;;;;;;;;;5093912;28;19911;-69
2022/05/24 23:39:19;;;;;;;;;;;;;;;;;;5093636;28;19958;-70
2022/05/24 23:41:45;;;;;;;;;;;;;;;;;;5093551;28;19954;-70
2022/05/24 23:44:10;;;;;;;;;;;;;;;;;;5094049;28;19912;-70
2022/05/24 23:46:35;;;;;;;;;;;;;;;;;;5093831;28;19990;-69
2022/05/24 23:49:00;;;;;;;;;;;;;;;;;;5094155;28;19908;-70
2022/05/24 23:51:26;;;;;;;;;;;;;;;;;;5097706;28;19911;-70
2022/05/24 23:53:51;;;;;;;;;;;;;;;;;;5097018;28;20074;-71
2022/05/24 23:56:16;;;;;;;;;;;;;;;;;;5097559;28;19955;-70
2022/05/24 23:58:42;;;;;;;;;;;;;;;;;;5097459;28;19912;-69
